sensor_id;sensor_type;location;lat;lon;timestamp;temperature;humidity
28171;DHT22;15458;53.346;-1.688;2023-06-14T00:01:35;16.30;68.70
28171;DHT22;15458;53.346;-1.688;2023-06-14T00:04:01;16.10;69.00
28171;DHT22;15458;53.346;-1.688;2023-06-14T00:06:28;16.00;69.40
28171;DHT22;15458;53.346;-1.688;2023-06-14T00:08:54;15.90;69.70
28171;DHT22;15458;53.346;-1.688;2023-06-14T00:11:20;15.90;70.00
28171;DHT22;15458;53.346;-1.688;2023-06-14T00:13:46;15.80;70.40
28171;DHT22;15458;53.346;-1.688;2023-06-14T00:16:12;15.70;70.80
28171;DHT22;15458;53.346;-1.688;2023-06-14T00:18:38;15.60;71.00
28171;DHT22;15458;53.346;-1.688;2023-06-14T00:21:04;15.60;71.40
28171;DHT22;15458;53.346;-1.688;2023-06-14T00:23:30;15.50;71.60
28171;DHT22;15458;53.346;-1.688;2023-06-14T00:25:56;15.40;71.80
28171;DHT22;15458;53.346;-1.688;2023-06-14T00:28:22;15.20;71.60
28171;DHT22;15458;53.346;-1.688;2023-06-14T00:30:47;15.10;71.50
28171;DHT22;15458;53.346;-1.688;2023-06-14T00:33:13;15.00;72.30
28171;DHT22;15458;53.346;-1.688;2023-06-14T00:35:39;14.90;71.60
28171;DHT22;15458;53.346;-1.688;2023-06-14T00:38:05;14.80;71.80
28171;DHT22;15458;53.346;-1.688;2023-06-14T00:40:31;14.80;72.00
28171;DHT22;15458;53.346;-1.688;2023-06-14T00:42:56;14.70;72.10
28171;DHT22;15458;53.346;-1.688;2023-06-14T00:45:22;14.60;72.30
28171;DHT22;15458;53.346;-1.688;2023-06-14T00:47:49;14.60;72.50
28171;DHT22;15458;53.346;-1.688;2023-06-14T00:50:18;14.60;72.50
28171;DHT22;15458;53.346;-1.688;2023-06-14T00:52:45;14.50;72.60
28171;DHT22;15458;53.346;-1.688;2023-06-14T00:55:11;14.50;73.00
28171;DHT22;15458;53.346;-1.688;2023-06-14T00:57:37;14.50;73.40
28171;DHT22;15458;53.346;-1.688;2023-06-14T01:00:03;14.40;73.60
28171;DHT22;15458;53.346;-1.688;2023-06-14T01:02:35;14.40;73.90
28171;DHT22;15458;53.346;-1.688;2023-06-14T01:05:02;14.40;74.00
28171;DHT22;15458;53.346;-1.688;2023-06-14T01:11:27;14.40;74.30
28171;DHT22;15458;53.346;-1.688;2023-06-14T01:13:54;14.30;74.40
28171;DHT22;15458;53.346;-1.688;2023-06-14T01:16:21;14.30;74.50
28171;DHT22;15458;53.346;-1.688;2023-06-14T01:18:47;14.20;74.70
28171;DHT22;15458;53.346;-1.688;2023-06-14T01:21:22;14.20;75.10
28171;DHT22;15458;53.346;-1.688;2023-06-14T01:23:47;14.10;75.50
28171;DHT22;15458;53.346;-1.688;2023-06-14T01:26:19;14.00;75.80
28171;DHT22;15458;53.346;-1.688;2023-06-14T01:28:45;14.00;76.30
28171;DHT22;15458;53.346;-1.688;2023-06-14T01:31:16;14.00;76.70
28171;DHT22;15458;53.346;-1.688;2023-06-14T01:33:42;13.90;77.10
28171;DHT22;15458;53.346;-1.688;2023-06-14T01:36:09;13.90;77.50
28171;DHT22;15458;53.346;-1.688;2023-06-14T01:38:36;13.90;77.90
28171;DHT22;15458;53.346;-1.688;2023-06-14T01:41:03;13.90;78.20
28171;DHT22;15458;53.346;-1.688;2023-06-14T01:43:30;13.80;78.50
28171;DHT22;15458;53.346;-1.688;2023-06-14T01:45:57;13.80;78.70
28171;DHT22;15458;53.346;-1.688;2023-06-14T01:48:24;13.80;78.90
28171;DHT22;15458;53.346;-1.688;2023-06-14T01:50:50;13.70;79.00
28171;DHT22;15458;53.346;-1.688;2023-06-14T01:53:16;13.50;79.10
28171;DHT22;15458;53.346;-1.688;2023-06-14T01:55:42;13.30;79.50
28171;DHT22;15458;53.346;-1.688;2023-06-14T01:58:09;13.30;80.00
28171;DHT22;15458;53.346;-1.688;2023-06-14T02:00:35;13.20;80.40
28171;DHT22;15458;53.346;-1.688;2023-06-14T02:03:01;13.10;80.80
28171;DHT22;15458;53.346;-1.688;2023-06-14T02:05:27;13.10;81.10
28171;DHT22;15458;53.346;-1.688;2023-06-14T02:07:53;13.00;81.40
28171;DHT22;15458;53.346;-1.688;2023-06-14T02:10:20;13.00;81.70
28171;DHT22;15458;53.346;-1.688;2023-06-14T02:12:45;12.90;81.80
28171;DHT22;15458;53.346;-1.688;2023-06-14T02:15:11;12.90;82.80
28171;DHT22;15458;53.346;-1.688;2023-06-14T02:17:48;12.80;82.30
28171;DHT22;15458;53.346;-1.688;2023-06-14T02:20:14;12.80;82.60
28171;DHT22;15458;53.346;-1.688;2023-06-14T02:22:40;12.70;82.70
28171;DHT22;15458;53.346;-1.688;2023-06-14T02:25:07;12.70;82.90
28171;DHT22;15458;53.346;-1.688;2023-06-14T02:27:33;12.70;83.20
28171;DHT22;15458;53.346;-1.688;2023-06-14T02:29:59;12.60;83.30
28171;DHT22;15458;53.346;-1.688;2023-06-14T02:32:25;12.60;83.50
28171;DHT22;15458;53.346;-1.688;2023-06-14T02:34:52;12.60;83.50
28171;DHT22;15458;53.346;-1.688;2023-06-14T02:37:19;12.60;83.60
28171;DHT22;15458;53.346;-1.688;2023-06-14T02:39:44;12.60;83.70
28171;DHT22;15458;53.346;-1.688;2023-06-14T02:42:10;12.60;83.80
28171;DHT22;15458;53.346;-1.688;2023-06-14T02:44:36;12.60;84.00
28171;DHT22;15458;53.346;-1.688;2023-06-14T02:47:02;12.60;84.10
28171;DHT22;15458;53.346;-1.688;2023-06-14T02:49:28;12.60;84.20
28171;DHT22;15458;53.346;-1.688;2023-06-14T02:51:55;12.70;84.30
28171;DHT22;15458;53.346;-1.688;2023-06-14T02:54:20;12.70;84.30
28171;DHT22;15458;53.346;-1.688;2023-06-14T02:56:46;12.70;84.40
28171;DHT22;15458;53.346;-1.688;2023-06-14T02:59:12;12.70;84.30
28171;DHT22;15458;53.346;-1.688;2023-06-14T03:01:39;12.70;84.40
28171;DHT22;15458;53.346;-1.688;2023-06-14T03:04:07;12.70;84.30
28171;DHT22;15458;53.346;-1.688;2023-06-14T03:06:33;12.70;84.50
28171;DHT22;15458;53.346;-1.688;2023-06-14T03:08:59;12.80;84.30
28171;DHT22;15458;53.346;-1.688;2023-06-14T03:11:27;12.80;84.20
28171;DHT22;15458;53.346;-1.688;2023-06-14T03:13:53;12.80;84.10
28171;DHT22;15458;53.346;-1.688;2023-06-14T03:16:19;12.80;84.30
28171;DHT22;15458;53.346;-1.688;2023-06-14T03:18:48;12.90;84.20
28171;DHT22;15458;53.346;-1.688;2023-06-14T03:21:14;12.90;83.90
28171;DHT22;15458;53.346;-1.688;2023-06-14T03:23:41;12.90;83.80
28171;DHT22;15458;53.346;-1.688;2023-06-14T03:26:07;12.90;83.50
28171;DHT22;15458;53.346;-1.688;2023-06-14T03:28:33;13.00;83.30
28171;DHT22;15458;53.346;-1.688;2023-06-14T03:30:59;13.00;83.10
28171;DHT22;15458;53.346;-1.688;2023-06-14T03:33:25;13.00;82.90
28171;DHT22;15458;53.346;-1.688;2023-06-14T03:35:51;13.10;82.90
28171;DHT22;15458;53.346;-1.688;2023-06-14T03:38:17;13.10;82.70
28171;DHT22;15458;53.346;-1.688;2023-06-14T03:40:43;13.10;82.60
28171;DHT22;15458;53.346;-1.688;2023-06-14T03:43:09;13.10;82.60
28171;DHT22;15458;53.346;-1.688;2023-06-14T03:45:35;13.10;82.60
28171;DHT22;15458;53.346;-1.688;2023-06-14T03:48:01;13.10;82.60
28171;DHT22;15458;53.346;-1.688;2023-06-14T03:50:28;13.10;82.70
28171;DHT22;15458;53.346;-1.688;2023-06-14T03:52:54;13.10;82.70
28171;DHT22;15458;53.346;-1.688;2023-06-14T03:55:19;13.10;82.80
28171;DHT22;15458;53.346;-1.688;2023-06-14T03:57:45;13.00;82.90
28171;DHT22;15458;53.346;-1.688;2023-06-14T04:00:11;13.00;83.20
28171;DHT22;15458;53.346;-1.688;2023-06-14T04:02:38;13.00;83.40
28171;DHT22;15458;53.346;-1.688;2023-06-14T04:05:03;13.00;83.50
28171;DHT22;15458;53.346;-1.688;2023-06-14T04:07:30;13.00;83.70
28171;DHT22;15458;53.346;-1.688;2023-06-14T04:09:56;13.00;83.90
28171;DHT22;15458;53.346;-1.688;2023-06-14T04:12:21;13.00;84.00
28171;DHT22;15458;53.346;-1.688;2023-06-14T04:14:47;13.00;84.10
28171;DHT22;15458;53.346;-1.688;2023-06-14T04:17:13;13.00;84.30
28171;DHT22;15458;53.346;-1.688;2023-06-14T04:19:39;13.00;84.50
28171;DHT22;15458;53.346;-1.688;2023-06-14T04:22:05;13.00;84.80
28171;DHT22;15458;53.346;-1.688;2023-06-14T04:24:31;12.90;85.00
28171;DHT22;15458;53.346;-1.688;2023-06-14T04:27:00;12.90;85.20
28171;DHT22;15458;53.346;-1.688;2023-06-14T04:29:29;12.90;85.60
28171;DHT22;15458;53.346;-1.688;2023-06-14T04:31:55;12.90;86.00
28171;DHT22;15458;53.346;-1.688;2023-06-14T04:34:25;12.80;86.40
28171;DHT22;15458;53.346;-1.688;2023-06-14T04:36:58;12.90;86.90
28171;DHT22;15458;53.346;-1.688;2023-06-14T04:39:25;12.80;87.30
28171;DHT22;15458;53.346;-1.688;2023-06-14T04:41:51;12.80;87.90
28171;DHT22;15458;53.346;-1.688;2023-06-14T04:44:18;12.80;88.40
28171;DHT22;15458;53.346;-1.688;2023-06-14T04:46:45;12.80;89.00
28171;DHT22;15458;53.346;-1.688;2023-06-14T04:49:12;12.70;89.50
28171;DHT22;15458;53.346;-1.688;2023-06-14T04:51:40;12.70;90.10
28171;DHT22;15458;53.346;-1.688;2023-06-14T04:54:05;12.70;90.40
28171;DHT22;15458;53.346;-1.688;2023-06-14T04:56:35;12.70;90.80
28171;DHT22;15458;53.346;-1.688;2023-06-14T04:59:02;12.70;91.10
28171;DHT22;15458;53.346;-1.688;2023-06-14T05:01:30;12.70;91.60
28171;DHT22;15458;53.346;-1.688;2023-06-14T05:04:00;12.70;92.00
28171;DHT22;15458;53.346;-1.688;2023-06-14T05:06:25;12.70;92.40
28171;DHT22;15458;53.346;-1.688;2023-06-14T05:08:55;12.80;92.80
28171;DHT22;15458;53.346;-1.688;2023-06-14T05:11:20;12.80;93.10
28171;DHT22;15458;53.346;-1.688;2023-06-14T05:13:46;12.80;93.50
28171;DHT22;15458;53.346;-1.688;2023-06-14T05:16:12;12.80;93.80
28171;DHT22;15458;53.346;-1.688;2023-06-14T05:18:38;12.80;94.20
28171;DHT22;15458;53.346;-1.688;2023-06-14T05:21:05;12.80;94.50
28171;DHT22;15458;53.346;-1.688;2023-06-14T05:23:31;12.90;94.80
28171;DHT22;15458;53.346;-1.688;2023-06-14T05:25:57;12.90;95.10
28171;DHT22;15458;53.346;-1.688;2023-06-14T05:28:23;12.90;95.40
28171;DHT22;15458;53.346;-1.688;2023-06-14T05:30:49;12.90;95.70
28171;DHT22;15458;53.346;-1.688;2023-06-14T05:33:15;13.00;95.90
28171;DHT22;15458;53.346;-1.688;2023-06-14T05:35:41;13.00;96.20
28171;DHT22;15458;53.346;-1.688;2023-06-14T05:38:06;13.00;96.50
28171;DHT22;15458;53.346;-1.688;2023-06-14T05:40:33;13.00;96.70
28171;DHT22;15458;53.346;-1.688;2023-06-14T05:42:58;13.10;96.90
28171;DHT22;15458;53.346;-1.688;2023-06-14T05:45:24;13.10;97.20
28171;DHT22;15458;53.346;-1.688;2023-06-14T05:47:50;13.10;97.50
28171;DHT22;15458;53.346;-1.688;2023-06-14T05:50:16;13.10;97.70
28171;DHT22;15458;53.346;-1.688;2023-06-14T05:52:41;13.20;98.00
28171;DHT22;15458;53.346;-1.688;2023-06-14T05:55:07;13.30;98.30
28171;DHT22;15458;53.346;-1.688;2023-06-14T05:57:33;13.30;98.50
28171;DHT22;15458;53.346;-1.688;2023-06-14T05:59:59;13.40;98.70
28171;DHT22;15458;53.346;-1.688;2023-06-14T06:02:24;13.50;99.10
28171;DHT22;15458;53.346;-1.688;2023-06-14T06:04:50;13.60;99.20
28171;DHT22;15458;53.346;-1.688;2023-06-14T06:07:15;13.60;99.30
28171;DHT22;15458;53.346;-1.688;2023-06-14T06:09:41;13.80;99.50
28171;DHT22;15458;53.346;-1.688;2023-06-14T06:12:07;13.80;99.50
28171;DHT22;15458;53.346;-1.688;2023-06-14T06:14:33;13.90;99.50
28171;DHT22;15458;53.346;-1.688;2023-06-14T06:16:59;14.00;99.40
28171;DHT22;15458;53.346;-1.688;2023-06-14T06:19:24;14.10;99.40
28171;DHT22;15458;53.346;-1.688;2023-06-14T06:21:50;14.20;99.40
28171;DHT22;15458;53.346;-1.688;2023-06-14T06:24:16;14.30;99.40
28171;DHT22;15458;53.346;-1.688;2023-06-14T06:26:42;14.40;99.30
28171;DHT22;15458;53.346;-1.688;2023-06-14T06:29:08;14.50;99.40
28171;DHT22;15458;53.346;-1.688;2023-06-14T06:31:33;14.50;99.30
28171;DHT22;15458;53.346;-1.688;2023-06-14T06:33:59;14.60;99.10
28171;DHT22;15458;53.346;-1.688;2023-06-14T06:36:25;14.70;99.00
28171;DHT22;15458;53.346;-1.688;2023-06-14T06:38:50;14.80;99.00
28171;DHT22;15458;53.346;-1.688;2023-06-14T06:41:16;14.90;98.90
28171;DHT22;15458;53.346;-1.688;2023-06-14T06:43:42;15.00;98.70
28171;DHT22;15458;53.346;-1.688;2023-06-14T06:46:08;15.00;98.50
28171;DHT22;15458;53.346;-1.688;2023-06-14T06:48:33;15.20;98.40
28171;DHT22;15458;53.346;-1.688;2023-06-14T06:50:59;15.20;98.30
28171;DHT22;15458;53.346;-1.688;2023-06-14T06:53:25;15.30;98.10
28171;DHT22;15458;53.346;-1.688;2023-06-14T06:55:50;15.40;98.00
28171;DHT22;15458;53.346;-1.688;2023-06-14T06:58:16;15.50;97.90
28171;DHT22;15458;53.346;-1.688;2023-06-14T07:00:42;15.50;97.80
28171;DHT22;15458;53.346;-1.688;2023-06-14T07:03:07;15.60;97.50
28171;DHT22;15458;53.346;-1.688;2023-06-14T07:05:33;15.70;97.40
28171;DHT22;15458;53.346;-1.688;2023-06-14T07:08:00;15.80;97.30
28171;DHT22;15458;53.346;-1.688;2023-06-14T07:10:26;15.90;97.30
28171;DHT22;15458;53.346;-1.688;2023-06-14T07:12:51;16.00;97.30
28171;DHT22;15458;53.346;-1.688;2023-06-14T07:15:17;16.00;97.00
28171;DHT22;15458;53.346;-1.688;2023-06-14T07:17:43;16.10;96.80
28171;DHT22;15458;53.346;-1.688;2023-06-14T07:20:09;16.20;96.60
28171;DHT22;15458;53.346;-1.688;2023-06-14T07:22:38;16.20;96.50
28171;DHT22;15458;53.346;-1.688;2023-06-14T07:25:06;16.30;96.30
28171;DHT22;15458;53.346;-1.688;2023-06-14T07:27:33;16.40;96.20
28171;DHT22;15458;53.346;-1.688;2023-06-14T07:29:59;16.50;96.10
28171;DHT22;15458;53.346;-1.688;2023-06-14T07:32:25;16.60;95.70
28171;DHT22;15458;53.346;-1.688;2023-06-14T07:34:50;16.70;95.40
28171;DHT22;15458;53.346;-1.688;2023-06-14T07:37:16;16.70;95.20
28171;DHT22;15458;53.346;-1.688;2023-06-14T07:39:41;16.80;95.10
28171;DHT22;15458;53.346;-1.688;2023-06-14T07:42:07;16.90;94.90
28171;DHT22;15458;53.346;-1.688;2023-06-14T07:44:33;17.00;94.80
28171;DHT22;15458;53.346;-1.688;2023-06-14T07:46:58;17.10;94.60
28171;DHT22;15458;53.346;-1.688;2023-06-14T07:49:25;17.10;94.40
28171;DHT22;15458;53.346;-1.688;2023-06-14T07:51:51;17.20;94.30
28171;DHT22;15458;53.346;-1.688;2023-06-14T07:54:17;17.30;94.40
28171;DHT22;15458;53.346;-1.688;2023-06-14T07:56:43;17.40;93.80
28171;DHT22;15458;53.346;-1.688;2023-06-14T07:59:09;17.50;93.40
28171;DHT22;15458;53.346;-1.688;2023-06-14T08:01:35;17.50;93.30
28171;DHT22;15458;53.346;-1.688;2023-06-14T08:04:01;17.60;93.20
28171;DHT22;15458;53.346;-1.688;2023-06-14T08:06:27;17.70;92.90
28171;DHT22;15458;53.346;-1.688;2023-06-14T08:08:56;17.80;92.70
28171;DHT22;15458;53.346;-1.688;2023-06-14T08:11:22;17.90;92.50
28171;DHT22;15458;53.346;-1.688;2023-06-14T08:13:49;17.90;92.30
28171;DHT22;15458;53.346;-1.688;2023-06-14T08:16:15;18.00;92.30
28171;DHT22;15458;53.346;-1.688;2023-06-14T08:18:40;18.10;92.10
28171;DHT22;15458;53.346;-1.688;2023-06-14T08:21:06;18.20;92.10
28171;DHT22;15458;53.346;-1.688;2023-06-14T08:23:38;18.40;91.90
28171;DHT22;15458;53.346;-1.688;2023-06-14T08:26:04;18.50;91.70
28171;DHT22;15458;53.346;-1.688;2023-06-14T08:28:30;18.60;91.40
28171;DHT22;15458;53.346;-1.688;2023-06-14T08:30:56;18.80;91.10
28171;DHT22;15458;53.346;-1.688;2023-06-14T08:33:22;18.90;90.70
28171;DHT22;15458;53.346;-1.688;2023-06-14T08:35:47;19.00;90.40
28171;DHT22;15458;53.346;-1.688;2023-06-14T08:38:13;19.10;90.30
28171;DHT22;15458;53.346;-1.688;2023-06-14T08:40:39;19.20;90.00
28171;DHT22;15458;53.346;-1.688;2023-06-14T08:43:07;19.30;89.10
28171;DHT22;15458;53.346;-1.688;2023-06-14T08:45:33;19.40;88.70
28171;DHT22;15458;53.346;-1.688;2023-06-14T08:47:59;19.60;87.50
28171;DHT22;15458;53.346;-1.688;2023-06-14T08:50:27;19.80;86.00
28171;DHT22;15458;53.346;-1.688;2023-06-14T08:52:59;19.80;85.00
28171;DHT22;15458;53.346;-1.688;2023-06-14T08:55:29;20.00;84.80
28171;DHT22;15458;53.346;-1.688;2023-06-14T08:57:57;20.10;84.60
28171;DHT22;15458;53.346;-1.688;2023-06-14T09:00:26;20.30;83.80
28171;DHT22;15458;53.346;-1.688;2023-06-14T09:02:53;20.30;83.20
28171;DHT22;15458;53.346;-1.688;2023-06-14T09:05:26;20.50;82.70
28171;DHT22;15458;53.346;-1.688;2023-06-14T09:07:52;20.60;81.80
28171;DHT22;15458;53.346;-1.688;2023-06-14T09:10:21;20.70;81.40
28171;DHT22;15458;53.346;-1.688;2023-06-14T09:12:47;20.90;81.10
28171;DHT22;15458;53.346;-1.688;2023-06-14T09:15:13;21.00;80.60
28171;DHT22;15458;53.346;-1.688;2023-06-14T09:17:40;21.20;79.90
28171;DHT22;15458;53.346;-1.688;2023-06-14T09:20:07;21.30;79.40
28171;DHT22;15458;53.346;-1.688;2023-06-14T09:22:37;21.50;78.90
28171;DHT22;15458;53.346;-1.688;2023-06-14T09:25:03;21.60;78.00
28171;DHT22;15458;53.346;-1.688;2023-06-14T09:27:30;21.70;77.50
28171;DHT22;15458;53.346;-1.688;2023-06-14T09:29:55;21.80;76.90
28171;DHT22;15458;53.346;-1.688;2023-06-14T09:32:22;21.90;76.50
28171;DHT22;15458;53.346;-1.688;2023-06-14T09:34:47;22.10;76.10
28171;DHT22;15458;53.346;-1.688;2023-06-14T09:37:17;22.20;75.90
28171;DHT22;15458;53.346;-1.688;2023-06-14T09:39:51;22.40;75.50
28171;DHT22;15458;53.346;-1.688;2023-06-14T09:42:17;22.50;74.90
28171;DHT22;15458;53.346;-1.688;2023-06-14T09:44:48;22.60;74.10
28171;DHT22;15458;53.346;-1.688;2023-06-14T09:47:15;22.70;73.10
28171;DHT22;15458;53.346;-1.688;2023-06-14T09:49:42;22.80;73.70
28171;DHT22;15458;53.346;-1.688;2023-06-14T09:52:13;23.00;72.70
28171;DHT22;15458;53.346;-1.688;2023-06-14T09:54:41;23.20;72.50
28171;DHT22;15458;53.346;-1.688;2023-06-14T09:57:30;23.40;71.90
28171;DHT22;15458;53.346;-1.688;2023-06-14T10:00:00;23.40;71.10
28171;DHT22;15458;53.346;-1.688;2023-06-14T10:02:32;23.50;70.70
28171;DHT22;15458;53.346;-1.688;2023-06-14T10:05:07;23.70;70.20
28171;DHT22;15458;53.346;-1.688;2023-06-14T10:07:44;23.90;70.00
28171;DHT22;15458;53.346;-1.688;2023-06-14T10:10:13;24.10;69.60
28171;DHT22;15458;53.346;-1.688;2023-06-14T10:12:39;24.30;68.60
28171;DHT22;15458;53.346;-1.688;2023-06-14T10:15:08;24.40;67.80
28171;DHT22;15458;53.346;-1.688;2023-06-14T10:17:50;24.60;67.20
28171;DHT22;15458;53.346;-1.688;2023-06-14T10:23:23;24.70;65.70
28171;DHT22;15458;53.346;-1.688;2023-06-14T10:25:50;24.80;65.10
28171;DHT22;15458;53.346;-1.688;2023-06-14T10:28:20;24.90;64.60
28171;DHT22;15458;53.346;-1.688;2023-06-14T10:33:33;25.00;62.80
28171;DHT22;15458;53.346;-1.688;2023-06-14T10:38:36;25.20;61.20
28171;DHT22;15458;53.346;-1.688;2023-06-14T10:41:04;25.30;60.50
28171;DHT22;15458;53.346;-1.688;2023-06-14T10:43:31;25.40;59.50
28171;DHT22;15458;53.346;-1.688;2023-06-14T10:46:18;25.60;59.00
28171;DHT22;15458;53.346;-1.688;2023-06-14T10:48:48;25.60;57.80
28171;DHT22;15458;53.346;-1.688;2023-06-14T10:51:20;25.60;57.50
28171;DHT22;15458;53.346;-1.688;2023-06-14T10:53:50;25.70;57.60
28171;DHT22;15458;53.346;-1.688;2023-06-14T10:56:33;25.90;57.30
28171;DHT22;15458;53.346;-1.688;2023-06-14T10:58:59;26.00;56.50
28171;DHT22;15458;53.346;-1.688;2023-06-14T11:01:46;26.00;56.30
28171;DHT22;15458;53.346;-1.688;2023-06-14T11:04:20;26.10;55.80
28171;DHT22;15458;53.346;-1.688;2023-06-14T11:06:50;26.20;55.70
28171;DHT22;15458;53.346;-1.688;2023-06-14T11:12:21;26.40;54.90
28171;DHT22;15458;53.346;-1.688;2023-06-14T11:14:48;26.50;55.10
28171;DHT22;15458;53.346;-1.688;2023-06-14T11:17:14;26.60;53.90
28171;DHT22;15458;53.346;-1.688;2023-06-14T11:19:39;26.70;53.20
28171;DHT22;15458;53.346;-1.688;2023-06-14T11:22:05;26.80;53.00
28171;DHT22;15458;53.346;-1.688;2023-06-14T11:24:33;27.00;53.00
28171;DHT22;15458;53.346;-1.688;2023-06-14T11:26:58;27.30;53.10
28171;DHT22;15458;53.346;-1.688;2023-06-14T11:29:24;27.40;52.30
28171;DHT22;15458;53.346;-1.688;2023-06-14T11:31:50;27.50;51.80
28171;DHT22;15458;53.346;-1.688;2023-06-14T11:34:16;27.60;51.30
28171;DHT22;15458;53.346;-1.688;2023-06-14T11:36:42;27.60;50.80
28171;DHT22;15458;53.346;-1.688;2023-06-14T11:39:08;27.60;50.60
28171;DHT22;15458;53.346;-1.688;2023-06-14T11:41:52;27.60;50.70
28171;DHT22;15458;53.346;-1.688;2023-06-14T11:44:18;27.60;50.70
28171;DHT22;15458;53.346;-1.688;2023-06-14T11:46:44;27.60;50.70
28171;DHT22;15458;53.346;-1.688;2023-06-14T11:49:10;27.80;50.60
28171;DHT22;15458;53.346;-1.688;2023-06-14T11:51:36;27.90;50.40
28171;DHT22;15458;53.346;-1.688;2023-06-14T11:54:03;28.00;50.40
28171;DHT22;15458;53.346;-1.688;2023-06-14T11:56:30;28.00;50.00
28171;DHT22;15458;53.346;-1.688;2023-06-14T11:58:57;28.10;50.20
28171;DHT22;15458;53.346;-1.688;2023-06-14T12:01:23;28.30;50.10
28171;DHT22;15458;53.346;-1.688;2023-06-14T12:03:50;28.20;49.70
28171;DHT22;15458;53.346;-1.688;2023-06-14T12:06:16;28.20;49.40
28171;DHT22;15458;53.346;-1.688;2023-06-14T12:08:43;28.30;49.30
28171;DHT22;15458;53.346;-1.688;2023-06-14T12:11:12;28.50;49.50
28171;DHT22;15458;53.346;-1.688;2023-06-14T12:13:40;28.60;49.50
28171;DHT22;15458;53.346;-1.688;2023-06-14T12:16:07;28.60;49.60
28171;DHT22;15458;53.346;-1.688;2023-06-14T12:18:35;28.70;49.40
28171;DHT22;15458;53.346;-1.688;2023-06-14T12:21:06;28.70;49.10
28171;DHT22;15458;53.346;-1.688;2023-06-14T12:23:49;28.70;48.90
28171;DHT22;15458;53.346;-1.688;2023-06-14T12:26:19;28.70;49.20
28171;DHT22;15458;53.346;-1.688;2023-06-14T12:28:46;28.80;48.50
28171;DHT22;15458;53.346;-1.688;2023-06-14T12:31:13;28.70;48.80
28171;DHT22;15458;53.346;-1.688;2023-06-14T12:33:40;28.90;48.80
28171;DHT22;15458;53.346;-1.688;2023-06-14T12:36:10;29.00;48.50
28171;DHT22;15458;53.346;-1.688;2023-06-14T12:38:36;29.00;48.50
28171;DHT22;15458;53.346;-1.688;2023-06-14T12:41:03;29.20;48.70
28171;DHT22;15458;53.346;-1.688;2023-06-14T12:43:29;29.20;48.20
28171;DHT22;15458;53.346;-1.688;2023-06-14T12:45:55;29.20;48.90
28171;DHT22;15458;53.346;-1.688;2023-06-14T12:48:21;29.30;48.50
28171;DHT22;15458;53.346;-1.688;2023-06-14T12:50:47;29.30;48.40
28171;DHT22;15458;53.346;-1.688;2023-06-14T12:53:13;29.40;48.40
28171;DHT22;15458;53.346;-1.688;2023-06-14T12:55:39;29.40;48.20
28171;DHT22;15458;53.346;-1.688;2023-06-14T12:58:05;29.50;48.10
28171;DHT22;15458;53.346;-1.688;2023-06-14T13:00:31;29.50;47.50
28171;DHT22;15458;53.346;-1.688;2023-06-14T13:02:57;29.60;47.10
28171;DHT22;15458;53.346;-1.688;2023-06-14T13:05:23;29.70;46.60
28171;DHT22;15458;53.346;-1.688;2023-06-14T13:07:50;29.70;46.30
28171;DHT22;15458;53.346;-1.688;2023-06-14T13:10:18;29.80;46.50
28171;DHT22;15458;53.346;-1.688;2023-06-14T13:12:45;29.90;46.00
28171;DHT22;15458;53.346;-1.688;2023-06-14T13:15:11;30.00;45.80
28171;DHT22;15458;53.346;-1.688;2023-06-14T13:17:36;30.10;45.90
28171;DHT22;15458;53.346;-1.688;2023-06-14T13:20:07;30.10;46.00
28171;DHT22;15458;53.346;-1.688;2023-06-14T13:22:36;30.20;46.10
28171;DHT22;15458;53.346;-1.688;2023-06-14T13:25:03;30.30;46.20
28171;DHT22;15458;53.346;-1.688;2023-06-14T13:27:28;30.40;45.50
28171;DHT22;15458;53.346;-1.688;2023-06-14T13:29:55;30.50;45.30
28171;DHT22;15458;53.346;-1.688;2023-06-14T13:32:22;30.50;45.20
28171;DHT22;15458;53.346;-1.688;2023-06-14T13:34:48;30.50;45.20
28171;DHT22;15458;53.346;-1.688;2023-06-14T13:37:13;30.60;45.30
28171;DHT22;15458;53.346;-1.688;2023-06-14T13:39:40;30.60;45.20
28171;DHT22;15458;53.346;-1.688;2023-06-14T13:42:05;30.80;45.20
28171;DHT22;15458;53.346;-1.688;2023-06-14T13:44:31;30.90;45.10
28171;DHT22;15458;53.346;-1.688;2023-06-14T13:46:57;31.00;44.80
28171;DHT22;15458;53.346;-1.688;2023-06-14T13:49:22;30.80;44.00
28171;DHT22;15458;53.346;-1.688;2023-06-14T13:51:48;30.50;43.60
28171;DHT22;15458;53.346;-1.688;2023-06-14T13:54:14;30.20;44.20
28171;DHT22;15458;53.346;-1.688;2023-06-14T13:56:44;30.10;44.80
28171;DHT22;15458;53.346;-1.688;2023-06-14T13:59:11;30.30;45.20
28171;DHT22;15458;53.346;-1.688;2023-06-14T14:01:37;30.60;45.20
28171;DHT22;15458;53.346;-1.688;2023-06-14T14:04:04;30.60;45.40
28171;DHT22;15458;53.346;-1.688;2023-06-14T14:06:30;30.80;45.60
28171;DHT22;15458;53.346;-1.688;2023-06-14T14:08:56;30.90;45.10
28171;DHT22;15458;53.346;-1.688;2023-06-14T14:11:22;30.90;44.80
28171;DHT22;15458;53.346;-1.688;2023-06-14T14:13:48;31.00;44.50
28171;DHT22;15458;53.346;-1.688;2023-06-14T14:16:14;31.00;44.10
28171;DHT22;15458;53.346;-1.688;2023-06-14T14:18:39;31.00;44.30
28171;DHT22;15458;53.346;-1.688;2023-06-14T14:21:05;30.90;44.20
28171;DHT22;15458;53.346;-1.688;2023-06-14T14:23:31;30.80;44.30
28171;DHT22;15458;53.346;-1.688;2023-06-14T14:25:57;30.70;44.30
28171;DHT22;15458;53.346;-1.688;2023-06-14T14:28:23;30.70;44.70
28171;DHT22;15458;53.346;-1.688;2023-06-14T14:30:49;30.70;44.80
28171;DHT22;15458;53.346;-1.688;2023-06-14T14:33:15;30.60;44.80
28171;DHT22;15458;53.346;-1.688;2023-06-14T14:35:45;30.70;44.90
28171;DHT22;15458;53.346;-1.688;2023-06-14T14:38:14;30.90;45.00
28171;DHT22;15458;53.346;-1.688;2023-06-14T14:40:44;31.00;44.80
28171;DHT22;15458;53.346;-1.688;2023-06-14T14:43:10;31.10;44.70
28171;DHT22;15458;53.346;-1.688;2023-06-14T14:45:36;31.20;45.00
28171;DHT22;15458;53.346;-1.688;2023-06-14T14:48:02;31.10;44.30
28171;DHT22;15458;53.346;-1.688;2023-06-14T14:50:28;31.20;44.30
28171;DHT22;15458;53.346;-1.688;2023-06-14T14:52:55;31.20;44.30
28171;DHT22;15458;53.346;-1.688;2023-06-14T14:55:21;31.20;44.00
28171;DHT22;15458;53.346;-1.688;2023-06-14T14:57:47;31.10;43.70
28171;DHT22;15458;53.346;-1.688;2023-06-14T15:00:13;31.00;43.80
28171;DHT22;15458;53.346;-1.688;2023-06-14T15:02:40;31.10;43.80
28171;DHT22;15458;53.346;-1.688;2023-06-14T15:05:06;31.10;43.80
28171;DHT22;15458;53.346;-1.688;2023-06-14T15:07:34;31.10;43.60
28171;DHT22;15458;53.346;-1.688;2023-06-14T15:10:00;31.00;43.50
28171;DHT22;15458;53.346;-1.688;2023-06-14T15:12:27;30.80;43.50
28171;DHT22;15458;53.346;-1.688;2023-06-14T15:14:53;30.80;43.70
28171;DHT22;15458;53.346;-1.688;2023-06-14T15:17:20;30.80;43.90
28171;DHT22;15458;53.346;-1.688;2023-06-14T15:19:47;30.80;44.00
28171;DHT22;15458;53.346;-1.688;2023-06-14T15:22:13;31.00;44.00
28171;DHT22;15458;53.346;-1.688;2023-06-14T15:24:40;31.10;43.90
28171;DHT22;15458;53.346;-1.688;2023-06-14T15:27:06;31.20;43.60
28171;DHT22;15458;53.346;-1.688;2023-06-14T15:29:32;31.20;43.40